PAPBPADK

Guest
Details From PAPB - ST GEORGE
To PADK - ADAK
Flight Number -
Tags generated
Created
Modified
Stats Distance 414 nm / 767 km
Max Altitude 12,000 ft / 3,658 m
Waypoints 4
Social Downloads 0
Likes 0
Share VATSIM

Download

Looking for another format? Having issues loading an existing format? Contact us
Advertisement - Login to hide

Notes

Basic altitude profile: - Ascent Rate: 2500ft/min - Ascent Speed: 250kts - Cruise Altitude: 35000ft - Cruise Speed: 420kts - Descent Rate: 1500ft/min - Descent Speed: 250kts Options: - Use NATs: yes - Use PACOTS: yes - Use low airways: yes - Use high airways: yes

Route

PAPB HIGDO V480 ADK PADK

ID Type Via Altitude Latitude Longitude Leg Dist Tot Dist Heading (true) Name
O PAPB APT - 0 ft / 0 m 56.57735˚ -169.66374˚ - 0 nm - ST GEORGE
HIGDO FIX - 12,000 ft / 3,658 m 56.99931˚ -170.45838˚ 36 nm 36 nm 314° / 314° -
ADK NDB V480 (AWY-LO) 5,900 ft / 1,798 m 51.87189˚ -176.67600˚ 376 nm 412 nm 218° / 213° MOUNT MOFFETT NDB
O PADK APT - 0 ft / 0 m 51.87798˚ -176.64574˚ 1 nm 414 nm 72° / 72° ADAK

Altitude Profile

Advertisement - Login to hide

Weather


0- 5 10 15 20 25 30 35+ Temperature / ° C

Clouds and Precipitation
Forecast for 2017-12-17 06:00 UTC. Updated an hour ago

Ground ~20,000 ft ~40,000 ft Winds

PAPB

Details ICAO PAPB (PBV)
Name ST GEORGE
Region USA (Alaska)
Timezone America/Adak (UTC-10.0)
Stats Elevation 125 ft / 38 m (AMSL)
Location 56.577351° -169.663736°
Runways 1
Magnetic Variation 7.800° E

METAR

PAPB 170434Z AUTO 30030G38KT 8SM -SN FEW017 BKN023 OVC045 01/M01 A2951 RMK AO2 PK WND 30038/0434 P0000 T00061011 TSNO

Decode

TAF

Not found

Departure Runways

ID Width Length Bearing (true) Bearing (mag) Surface Threshold Offset Overrun Length
11 150 ft / 46 m 4,987 ft / 1,520 m 118.32° 110.52° Gravel 0 ft / 0 m 0 ft / 0 m
29 150 ft / 46 m 4,987 ft / 1,520 m 298.34° 290.54° Gravel 0 ft / 0 m 0 ft / 0 m

PADK

Details ICAO PADK (ADK)
Name ADAK
Region USA (Alaska)
Timezone America/Adak (UTC-10.0)
Stats Elevation 18 ft / 5 m (AMSL)
Location 51.877976° -176.645742°
Runways 2
Magnetic Variation 4.746° E

METAR

PADK 170356Z AUTO 28021G27KT 10SM BKN030 OVC040 02/M02 A3011

Decode

TAF

Not found

Destination Runways

ID Width Length Bearing (true) Bearing (mag) Surface Threshold Offset Overrun Length
05 200 ft / 61 m 7,772 ft / 2,369 m 60.49° 55.74° Asphalt 0 ft / 0 m 751 ft / 229 m
18 200 ft / 61 m 7,603 ft / 2,317 m 185.39° 180.64° Asphalt 0 ft / 0 m 0 ft / 0 m
23 200 ft / 61 m 7,772 ft / 2,369 m 240.52° 235.77° Asphalt 0 ft / 0 m 151 ft / 46 m
36 200 ft / 61 m 7,603 ft / 2,317 m 5.38° 0.63° Asphalt 0 ft / 0 m 0 ft / 0 m

Approach Navaids

Runway Type Ident Frequency Range Bearing (true) Bearing (mag) Slope Elevation
23 Localiser IBER 108.90 MHz 18 nm / 33 km 240.61° 235.87° - 18 ft / 5 m (AMSL)
23 Glidescope IBER 108.90 MHz 10 nm / 19 km 240.51° 235.76° 2.75° 18 ft / 5 m (AMSL)